KPMD/PMD METAR and TAF weather

Enter ICAO airport designator
Station Type Date Time Source
KPMD METAR 2019/02/21 15:53 UTC NOAA

KPMD 211553Z 29006KT 10SM SCT060 BKN075 OVC110 03/M02 A2960 RMK AO2 SLP029 T00281017


Station Type Date Time Source
KPMD Decoded METAR 2019/02/21 15:53 UTC NOAA

PALMDALE PROD FLIGHT PLANT, CA, United States (KPMD) 34-38N 118-05W 780M
Feb 21, 2019 - 10:53 AM EST / 2019.02.21 1553 UTC
Wind: from the WNW (290 degrees) at 7 MPH (6 KT):0
Visibility: 10 mile(s):0
Sky conditions: overcast
Temperature: 37.0 F (2.8 C)
Dew Point: 28.9 F (-1.7 C)
Relative Humidity: 72%
Pressure (altimeter): 29.6 in. Hg (1002 hPa)
ob: KPMD 211553Z 29006KT 10SM SCT060 BKN075 OVC110 03/M02 A2960 RMK AO2 SLP029 T00281017
cycle: 16

Station Type Date Time Source
KPMD TAF 2019/02/21 12:24 UTC NOAA

TAF KPMD 211122Z 2112/2212 24010KT P6SM -SHRA SCT035 BKN070
FM211800 32010KT P6SM VCSH FEW040 BKN080
FM220200 28012KT P6SM SCT080


Example: see airport list